Drachten Airfield

EHDR · Friesland, 荷兰

使用的METAR站距离机场28 km。
罗盘
风向 的 风向 的 风向 到 风向 080° Drachten Airfield 7/25
风: 6 kt, 2 beaufort

6 kt

改变
0 ft 1.000 2.000 3.000 4.000 5.000
Cloud Cloud Cloud Cloud Cloud Cloud Cloud Cloud
OVC 400
METAR EHLW 051325Z AUTO 08006KT 360V120 3600 BR OVC004 07/07 Q1014 YLO

METAR Drachten Airfield - EHDR

Drachten Airfield是,荷兰中的小机场。 该机场位于纬度53,11835和经度6,12995。 该机场有一条跑道: 7/25. 本场的ICAO机场代码为EHDR。 机场在Amsterdam FIR中。

该航空气象观测是针对Leeuwarden Air Base在2024年3月5日 14:25, 当地时间进行的。

机场观察

风向为080°,速度为6 kt。 风向在360°和120°之间变化。

可见度为3,6 km。

有乌云密布在400 ft的高度。 破损或更高的上限为400 ft。

当前天气为薄雾。 温度为7 °C,阵风为4 °C。 露点为7 °C,相对湿度为100%。 海平面上的气压为1014 hPa (QNH)。

白天

今天,太阳从07:11升起,在18:21降落。 这适用于Drachten Airfield,世界夏令时可能有所不同。 当地时间与世界标准时间之间的时差为+1 小时。 当前,没有夏令时有效。

公司介绍

本场上唯一已知的公司是Dutch-Houses BV。

体会

到Vliegles.nl去找飞行课程,跳伞和其他飞行体验。 浏览页面,了解Drachten Airfield附近所有可用的活动。 你也可以使用搜索功能来寻找你所在地附近的特定飞行课程、跳伞或其他飞行体验。

跑道

Id 标题 侧风 逆风 侧风 %
7/25 077°-257° 6 kt 5 %

逆风成分最大的方向会被突出显示,并用于横风计算。 这并不一定意味着这个方向在使用。

乌云

400 ft OVC 乌云密布

温度 & 天气

天气 薄雾
温度 7 °C
露点 7 °C
相对湿度 100%
风寒 4 °C
Kp-index 1 (0-9)

白天

日出
07:13
中午
12:48
日落
18:23 (3:23)

小工具

你想在你的网站上有一个关于Drachten Airfield的当前航空天气(METAR)的小部件吗?

显示HTML代码
?>